Item Display Status Humidity-temperature Sensor

Elevation Above Sea Level: 3 m

 

Deployed Sensor

  • Serial Number: 20593481
  • NDBC Property Number: 45528
  • Start Date: 1/10/2023 (08:22:34 Z)
  • End Date: Currently Active
Relative Humidity [%]     6 entries per hour
Showing data from 2/26/2024 (06:00:00 Z) to 2/25/2024 (00:00:01 Z)
Previous Next [ Day | 3-Days | 7-Days ]
First Last
Prev [ Day | 3-Days | 7-Days ] Next
First Last

Start Time:     :
End Time:     :     
Time (in GMT) :00 :50 :40 :30 :20 :10
Previous Next [ Day | 3-Days | 7-Days ]
First Last
Prev [ Day | 3-Days | 7-Days ] Next
First Last


123 => good data
MM => data is determined as missing
-- => data not received/configured
Back to Top Back to Top
2/26/2024 06:00 to 5:10 89.05 89.42 89.32 88.40 89.56 87.84
2/26/2024 05:00 to 4:10 86.13 86.44 86.15 85.85 85.67 85.22
2/26/2024 04:00 to 3:10 84.31 84.00 84.51 84.73 85.61 86.17
2/26/2024 03:00 to 2:10 86.38 86.60 86.72 86.68 87.11 87.61
2/26/2024 02:00 to 1:10 88.16 88.06 88.16 87.80 87.19 87.17
2/26/2024 01:00 to 0:10 87.27 86.44 86.21 85.99 85.57 85.55
2/26/2024 00:00 to 23:10 84.82 84.55 85.10 84.53 84.19 83.86
2/25/2024 23:00 to 22:10 84.25 85.10 85.32 85.28 85.69 86.23
2/25/2024 22:00 to 21:10 86.94 87.15 87.09 87.45 87.69 88.02
2/25/2024 21:00 to 20:10 88.22 88.34 88.14 88.20 87.90 88.71
2/25/2024 20:00 to 19:10 87.84 86.44 86.52 88.73 90.07 90.78
2/25/2024 19:00 to 18:10 91.85 92.76 93.37 93.88 95.19 95.34
2/25/2024 18:00 to 17:10 96.07 96.35 96.17 95.95 95.62 95.62
2/25/2024 17:00 to 16:10 96.07 95.07 92.84 87.80 83.27 83.40
2/25/2024 16:00 to 15:10 83.27 82.93 82.54 82.12 82.22 81.35
2/25/2024 15:00 to 14:10 80.90 80.84 80.68 80.07 80.25 78.06
2/25/2024 14:00 to 13:10 79.00 80.13 80.21 80.74 82.00 83.56
2/25/2024 13:00 to 12:10 84.61 85.28 85.22 85.38 85.12 85.14
2/25/2024 12:00 to 11:10 85.14 85.75 86.62 86.76 86.82 87.27
2/25/2024 11:00 to 10:10 87.75 87.82 87.15 86.78 86.11 86.13
2/25/2024 10:00 to 9:10 86.74 88.22 88.44 88.77 88.14 86.78
2/25/2024 09:00 to 8:10 86.44 86.21 84.59 83.42 85.63 86.01
2/25/2024 08:00 to 7:10 85.46 87.45 89.78 89.11 89.38 90.13
2/25/2024 07:00 to 6:10 88.10 84.19 83.60 82.99 82.75 82.52
2/25/2024 06:00 to 5:10 82.18 82.04 81.96 81.82 81.73 81.73
2/25/2024 05:00 to 4:10 81.57 81.31 80.98 80.88 80.92 81.29
2/25/2024 04:00 to 3:10 81.51 81.63 81.61 82.14 81.92 82.34
2/25/2024 03:00 to 2:10 82.73 82.81 83.15 83.84 84.82 84.94
2/25/2024 02:00 to 1:10 85.10 84.88 84.82 84.69 84.39 84.33
2/25/2024 01:00 to 0:10 84.23 84.23 84.21 83.72 83.09 82.04

 

 

 

Air Temperature [°C]     6 entries per hour
Showing data from 2/26/2024 (06:00:00 Z) to 2/25/2024 (00:00:01 Z)
Previous Next [ Day | 3-Days | 7-Days ]
First Last
Prev [ Day | 3-Days | 7-Days ] Next
First Last

Start Time:     :
End Time:     :     
Time (in GMT) :00 :50 :40 :30 :20 :10
Previous Next [ Day | 3-Days | 7-Days ]
First Last
Prev [ Day | 3-Days | 7-Days ] Next
First Last


123 => good data
MM => data is determined as missing
-- => data not received/configured
Back to Top Back to Top
2/26/2024 06:00 to 5:10 27.37 27.23 27.01 27.00 27.07 27.67
2/26/2024 05:00 to 4:10 27.82 27.81 27.71 27.62 27.65 27.79
2/26/2024 04:00 to 3:10 27.84 27.76 27.78 27.74 27.62 27.63
2/26/2024 03:00 to 2:10 27.60 27.60 27.60 27.55 27.51 27.44
2/26/2024 02:00 to 1:10 27.43 27.43 27.45 27.52 27.40 27.33
2/26/2024 01:00 to 0:10 27.39 27.28 27.27 27.30 27.24 27.29
2/26/2024 00:00 to 23:10 27.30 27.27 27.21 27.43 27.38 27.32
2/25/2024 23:00 to 22:10 27.35 27.08 27.16 27.09 27.09 26.99
2/25/2024 22:00 to 21:10 26.98 26.98 27.06 26.97 26.93 26.82
2/25/2024 21:00 to 20:10 26.97 26.97 27.01 26.94 26.77 26.78
2/25/2024 20:00 to 19:10 26.77 26.92 26.70 26.50 26.44 26.49
2/25/2024 19:00 to 18:10 26.13 26.15 26.11 25.72 25.68 25.60
2/25/2024 18:00 to 17:10 25.30 25.52 25.54 25.76 25.98 25.28
2/25/2024 17:00 to 16:10 25.34 25.54 26.29 26.83 28.23 28.36
2/25/2024 16:00 to 15:10 28.36 28.30 28.38 28.47 28.62 28.65
2/25/2024 15:00 to 14:10 28.79 28.88 28.91 29.09 28.77 29.14
2/25/2024 14:00 to 13:10 29.28 28.72 28.76 28.53 28.40 28.19
2/25/2024 13:00 to 12:10 27.75 27.58 27.42 27.51 27.40 27.37
2/25/2024 12:00 to 11:10 27.35 27.28 27.39 27.37 27.22 27.05
2/25/2024 11:00 to 10:10 27.09 27.03 27.14 27.05 27.14 26.94
2/25/2024 10:00 to 9:10 26.86 26.94 26.81 26.80 26.84 26.86
2/25/2024 09:00 to 8:10 26.69 26.96 26.85 26.73 26.54 26.45
2/25/2024 08:00 to 7:10 26.38 26.04 25.98 26.42 26.27 26.27
2/25/2024 07:00 to 6:10 26.93 27.85 27.89 27.77 27.79 27.77
2/25/2024 06:00 to 5:10 27.79 27.78 27.81 27.79 27.83 27.82
2/25/2024 05:00 to 4:10 27.89 27.82 27.78 27.85 27.78 27.83
2/25/2024 04:00 to 3:10 27.76 27.78 27.66 27.77 27.68 27.65
2/25/2024 03:00 to 2:10 27.82 27.81 27.67 27.54 27.66 27.66
2/25/2024 02:00 to 1:10 27.71 27.62 27.52 27.65 27.63 27.62
2/25/2024 01:00 to 0:10 27.59 27.51 27.54 27.56 27.76 27.76